createdAt,value
2023-01-02T00:01:58.969Z,8.30
2023-01-02T00:04:27.271Z,7.90
2023-01-02T00:06:58.443Z,7.90
2023-01-02T00:09:27.397Z,6.60
2023-01-02T00:11:57.869Z,6.80
2023-01-02T00:14:26.188Z,6.60
2023-01-02T00:16:54.931Z,7.00
2023-01-02T00:19:26.768Z,6.40
2023-01-02T00:21:55.259Z,6.80
2023-01-02T00:24:25.294Z,7.60
2023-01-02T00:26:53.858Z,7.80
2023-01-02T00:29:22.242Z,7.00
2023-01-02T00:31:50.539Z,7.00
2023-01-02T00:34:19.083Z,6.90
2023-01-02T00:36:47.441Z,7.70
2023-01-02T00:39:15.885Z,7.10
2023-01-02T00:41:44.238Z,7.50
2023-01-02T00:44:12.800Z,7.80
2023-01-02T00:46:41.303Z,6.70
2023-01-02T00:49:09.724Z,7.70
2023-01-02T00:51:38.171Z,7.90
2023-01-02T00:54:06.798Z,8.40
2023-01-02T00:56:35.362Z,9.00
2023-01-02T00:59:03.873Z,8.00
2023-01-02T01:01:32.423Z,8.20
2023-01-02T01:04:01.646Z,8.70
2023-01-02T01:06:30.059Z,9.10
2023-01-02T01:08:59.552Z,8.60
2023-01-02T01:11:28.837Z,10.40
2023-01-02T01:13:57.449Z,11.40
2023-01-02T01:16:26.500Z,11.00
2023-01-02T01:18:57.296Z,11.80
2023-01-02T01:21:25.779Z,11.80
2023-01-02T01:23:55.513Z,11.10
2023-01-02T01:26:24.586Z,11.00
2023-01-02T01:28:54.945Z,11.90
2023-01-02T01:31:25.045Z,12.00
2023-01-02T01:33:54.691Z,11.60
2023-01-02T01:36:24.624Z,11.90
2023-01-02T01:38:53.249Z,13.10
2023-01-02T01:41:25.751Z,11.80
2023-01-02T01:44:00.159Z,13.80
2023-01-02T01:46:47.573Z,12.80
2023-01-02T01:49:19.880Z,13.30
2023-01-02T01:52:06.310Z,12.20
2023-01-02T01:54:54.890Z,12.40
2023-01-02T01:58:07.294Z,11.90
2023-01-02T02:09:17.012Z,10.50
2023-01-02T02:11:46.902Z,11.90
2023-01-02T02:14:16.582Z,11.60
2023-01-02T02:17:01.112Z,11.30
2023-01-02T02:20:17.140Z,12.10
2023-01-02T02:23:32.719Z,11.20
2023-01-02T02:26:12.967Z,10.50
2023-01-02T02:29:05.379Z,10.90
2023-01-02T02:31:53.484Z,12.40
2023-01-02T02:34:46.074Z,12.40
2023-01-02T02:38:05.945Z,11.40
2023-01-02T02:41:17.946Z,12.20
2023-01-02T02:44:25.173Z,11.40
2023-01-02T02:46:58.615Z,10.80
2023-01-02T02:49:56.458Z,10.50
2023-01-02T02:53:09.351Z,12.20
2023-01-02T02:56:07.977Z,10.80
2023-01-02T02:58:37.926Z,9.60
2023-01-02T03:01:18.222Z,10.70
2023-01-02T03:03:46.625Z,9.80
2023-01-02T03:06:27.138Z,11.20
2023-01-02T03:09:15.754Z,10.80
2023-01-02T03:12:19.114Z,11.30
2023-01-02T03:15:21.794Z,10.60
2023-01-02T03:18:30.537Z,10.30
2023-01-02T03:21:35.115Z,10.30
2023-01-02T03:24:10.762Z,11.10
2023-01-02T03:26:45.866Z,10.70
2023-01-02T03:29:25.464Z,10.30
2023-01-02T03:31:56.505Z,10.50
2023-01-02T03:34:29.580Z,10.30
2023-01-02T03:37:15.083Z,8.80
2023-01-02T03:39:53.726Z,9.40
2023-01-02T03:42:34.162Z,9.90
2023-01-02T03:45:12.937Z,8.20
2023-01-02T03:47:54.420Z,9.30
2023-01-02T03:50:33.265Z,9.10
2023-01-02T03:53:01.827Z,8.60
2023-01-02T03:55:36.896Z,8.70
2023-01-02T03:58:32.364Z,9.80
2023-01-02T04:01:14.962Z,7.80
2023-01-02T04:03:52.156Z,8.90
2023-01-02T04:06:30.123Z,8.50
2023-01-02T04:09:09.536Z,8.50
2023-01-02T04:11:42.914Z,8.40
2023-01-02T04:14:19.591Z,8.70
2023-01-02T04:16:50.370Z,7.90
2023-01-02T04:19:25.722Z,7.60
2023-01-02T04:24:35.604Z,8.10
2023-01-02T04:27:12.835Z,9.00
2023-01-02T04:29:41.542Z,8.50
2023-01-02T04:32:28.543Z,8.90
2023-01-02T04:34:59.419Z,8.50
2023-01-02T04:37:38.542Z,10.10
2023-01-02T04:40:15.420Z,9.50
2023-01-02T04:42:43.941Z,10.20
2023-01-02T04:45:13.335Z,7.90
2023-01-02T04:47:41.729Z,6.60
2023-01-02T04:50:11.374Z,8.30
2023-01-02T04:52:39.915Z,7.80
2023-01-02T04:55:10.230Z,7.30
2023-01-02T04:57:38.912Z,7.10
2023-01-02T05:00:09.022Z,7.70
2023-01-02T05:02:40.777Z,7.90
2023-01-02T05:05:09.780Z,6.90
2023-01-02T05:07:38.728Z,7.40
2023-01-02T05:10:08.274Z,7.10
2023-01-02T05:12:39.485Z,6.40
2023-01-02T05:15:10.254Z,7.00
2023-01-02T05:17:41.673Z,6.50
2023-01-02T05:20:12.983Z,7.60
2023-01-02T05:23:02.151Z,7.10
2023-01-02T05:25:35.953Z,6.10
2023-01-02T05:28:05.986Z,6.30
2023-01-02T05:30:34.348Z,6.60
2023-01-02T05:33:02.828Z,6.40
2023-01-02T05:35:33.253Z,7.20
2023-01-02T05:38:02.669Z,6.80
2023-01-02T05:40:31.219Z,6.50
2023-01-02T05:42:59.694Z,6.40
2023-01-02T05:45:28.207Z,5.90
2023-01-02T05:47:56.781Z,6.90
2023-01-02T05:50:25.259Z,6.00
2023-01-02T05:52:55.899Z,6.30
2023-01-02T05:55:24.215Z,6.90
2023-01-02T05:57:56.534Z,6.30
2023-01-02T06:00:25.229Z,6.20
2023-01-02T06:02:53.700Z,6.30
2023-01-02T06:05:23.926Z,6.40
2023-01-02T06:07:52.357Z,6.80
2023-01-02T06:10:20.609Z,5.80
2023-01-02T06:12:49.071Z,7.50
2023-01-02T06:15:18.376Z,7.60
2023-01-02T06:17:46.842Z,7.10
2023-01-02T06:20:15.207Z,6.70
2023-01-02T06:22:45.619Z,6.10
2023-01-02T06:25:14.400Z,6.50
2023-01-02T06:27:43.077Z,6.70
2023-01-02T06:30:14.550Z,5.80
2023-01-02T06:32:42.831Z,6.50
2023-01-02T06:35:11.151Z,6.00
2023-01-02T06:37:44.475Z,5.60
2023-01-02T06:40:14.737Z,6.80
2023-01-02T06:42:46.509Z,5.80
2023-01-02T06:45:15.116Z,6.80
2023-01-02T06:47:44.613Z,8.10
2023-01-02T06:50:12.970Z,6.30
2023-01-02T06:52:41.556Z,7.50
2023-01-02T06:55:09.873Z,6.90
2023-01-02T06:57:38.199Z,6.90
2023-01-02T07:00:07.776Z,7.70
2023-01-02T07:02:36.147Z,7.60
2023-01-02T07:05:05.005Z,7.10
2023-01-02T07:07:33.315Z,7.30
2023-01-02T07:10:01.714Z,6.60
2023-01-02T07:12:30.085Z,5.90
2023-01-02T07:14:58.419Z,6.50
2023-01-02T07:17:26.817Z,7.00
2023-01-02T07:20:02.225Z,9.90
2023-01-02T07:22:31.316Z,6.50
2023-01-02T07:25:01.782Z,6.40
2023-01-02T07:27:31.088Z,6.70
2023-01-02T07:29:59.709Z,5.80
2023-01-02T07:32:28.021Z,6.30
2023-01-02T07:34:56.321Z,6.10
2023-01-02T07:37:24.663Z,7.30
2023-01-02T07:39:53.044Z,6.70
2023-01-02T07:42:21.363Z,6.40
2023-01-02T07:44:49.709Z,6.00
2023-01-02T07:47:18.103Z,6.70
2023-01-02T07:49:46.627Z,6.20
2023-01-02T07:52:14.952Z,7.50
2023-01-02T07:54:43.288Z,7.30
2023-01-02T07:57:11.600Z,7.60
2023-01-02T07:59:39.945Z,7.80
2023-01-02T08:02:11.449Z,9.40
2023-01-02T08:04:39.824Z,10.10
2023-01-02T08:07:09.743Z,9.60
2023-01-02T08:09:38.051Z,11.50
2023-01-02T08:12:06.421Z,8.50
2023-01-02T08:14:34.845Z,8.20
2023-01-02T08:17:03.248Z,7.30
2023-01-02T08:19:31.581Z,6.40
2023-01-02T08:21:59.885Z,6.90
2023-01-02T08:24:28.158Z,8.30
2023-01-02T08:26:56.601Z,7.40
2023-01-02T08:29:24.936Z,7.00
2023-01-02T08:31:53.324Z,7.80
2023-01-02T08:34:21.628Z,7.10
2023-01-02T08:36:49.993Z,7.90
2023-01-02T08:39:18.315Z,7.20
2023-01-02T08:41:46.635Z,6.50
2023-01-02T08:44:16.194Z,6.40
2023-01-02T08:46:44.703Z,6.20
2023-01-02T08:49:13.380Z,7.10
2023-01-02T08:51:41.799Z,5.70
2023-01-02T08:54:10.200Z,5.00
2023-01-02T08:56:38.714Z,5.20
2023-01-02T08:59:12.327Z,5.20
2023-01-02T09:01:41.299Z,5.10
2023-01-02T09:04:12.800Z,5.30
2023-01-02T09:06:43.238Z,4.60
2023-01-02T09:09:14.310Z,4.00
2023-01-02T09:11:51.946Z,5.10
2023-01-02T09:14:21.921Z,4.40
2023-01-02T09:16:51.876Z,4.60
2023-01-02T09:19:20.274Z,4.90
2023-01-02T09:21:48.620Z,4.20
2023-01-02T09:24:17.619Z,5.90
2023-01-02T09:26:46.257Z,6.20
2023-01-02T09:29:15.459Z,5.90
2023-01-02T09:31:43.947Z,5.70
2023-01-02T09:34:13.019Z,6.50
2023-01-02T09:36:41.428Z,6.90
2023-01-02T09:39:09.888Z,6.60
2023-01-02T09:41:52.503Z,6.60
2023-01-02T09:44:42.536Z,5.60
2023-01-02T09:47:10.816Z,5.60
2023-01-02T09:49:44.427Z,5.80
2023-01-02T09:52:25.935Z,5.10
2023-01-02T09:54:54.793Z,6.00
2023-01-02T09:57:29.299Z,4.70
2023-01-02T10:00:18.294Z,5.20
2023-01-02T10:03:18.110Z,5.60
2023-01-02T10:05:55.710Z,5.00
2023-01-02T10:08:55.386Z,4.90
2023-01-02T10:11:33.572Z,5.30
2023-01-02T10:14:29.414Z,5.00
2023-01-02T10:17:07.365Z,5.10
2023-01-02T10:19:54.434Z,4.80
2023-01-02T10:22:43.030Z,5.20
2023-01-02T10:25:27.132Z,4.70
2023-01-02T10:28:41.711Z,5.20
2023-01-02T10:31:26.697Z,5.90
2023-01-02T10:34:02.347Z,4.90
2023-01-02T10:36:43.129Z,5.50
2023-01-02T10:39:20.103Z,7.00
2023-01-02T10:41:57.000Z,6.10
2023-01-02T10:44:33.674Z,5.70
2023-01-02T10:47:20.426Z,6.50
2023-01-02T10:49:52.236Z,5.30
2023-01-02T10:52:48.986Z,6.10
2023-01-02T10:55:34.008Z,6.00
2023-01-02T10:58:28.067Z,5.90
2023-01-02T11:01:23.064Z,6.00
2023-01-02T11:03:57.902Z,4.80
2023-01-02T11:06:39.007Z,6.00
2023-01-02T11:09:21.503Z,5.10
2023-01-02T11:12:12.655Z,4.00
2023-01-02T11:14:41.066Z,4.70
2023-01-02T11:17:24.144Z,4.90
2023-01-02T11:19:55.513Z,4.30
2023-01-02T11:22:35.211Z,3.60
2023-01-02T11:25:13.346Z,3.50
2023-01-02T11:27:44.632Z,3.50
2023-01-02T11:30:32.758Z,3.70
2023-01-02T11:33:21.759Z,3.40
2023-01-02T11:35:58.611Z,4.20
2023-01-02T11:38:42.463Z,4.40
2023-01-02T11:41:48.303Z,5.30
2023-01-02T11:44:38.506Z,4.60
2023-01-02T11:47:12.432Z,5.00
2023-01-02T11:49:45.203Z,4.70
2023-01-02T11:52:52.695Z,3.60
2023-01-02T11:55:45.496Z,4.00
2023-01-02T11:58:54.477Z,4.20
2023-01-02T12:01:25.477Z,5.20
2023-01-02T12:03:53.964Z,4.80
2023-01-02T12:07:01.813Z,5.80
2023-01-02T12:09:49.967Z,5.60
2023-01-02T12:12:44.072Z,5.30
2023-01-02T12:15:44.469Z,4.70
2023-01-02T12:18:38.437Z,5.10
2023-01-02T12:21:22.872Z,6.00
2023-01-02T12:24:27.620Z,5.30
2023-01-02T12:27:17.066Z,5.70
2023-01-02T12:30:10.571Z,6.40
2023-01-02T12:33:19.752Z,6.40
2023-01-02T12:36:07.844Z,5.50
2023-01-02T12:39:23.368Z,5.00
2023-01-02T12:42:06.642Z,5.80
2023-01-02T12:44:54.311Z,5.50
2023-01-02T12:47:40.879Z,5.80
2023-01-02T12:50:20.916Z,4.90
2023-01-02T12:53:23.535Z,5.40
2023-01-02T12:56:05.098Z,5.80
2023-01-02T12:58:56.531Z,5.60
2023-01-02T13:01:49.679Z,4.90
2023-01-02T13:04:42.544Z,5.50
2023-01-02T13:07:49.244Z,6.10
2023-01-02T13:10:22.146Z,5.60
2023-01-02T13:12:51.354Z,6.20
2023-01-02T13:15:25.683Z,6.10
2023-01-02T13:18:13.705Z,4.90
2023-01-02T13:21:00.583Z,6.30
2023-01-02T13:23:44.382Z,6.00
2023-01-02T13:26:20.347Z,5.90
2023-01-02T13:29:19.204Z,5.90
2023-01-02T13:31:53.093Z,5.90
2023-01-02T13:34:33.114Z,6.10
2023-01-02T13:37:17.292Z,6.70
2023-01-02T13:51:07.846Z,5.70
2023-01-02T13:53:46.934Z,7.00
2023-01-02T13:56:24.447Z,6.70
2023-01-02T13:59:00.413Z,6.80
2023-01-02T14:01:41.724Z,5.90
2023-01-02T14:04:12.909Z,6.70
2023-01-02T14:06:48.538Z,6.40
2023-01-02T14:09:23.920Z,5.70
2023-01-02T14:12:03.818Z,6.20
2023-01-02T14:14:52.896Z,7.00
2023-01-02T14:17:50.171Z,5.80
2023-01-02T14:20:18.583Z,6.40
2023-01-02T14:23:02.312Z,6.30
2023-01-02T14:25:32.637Z,6.90
2023-01-02T14:28:04.856Z,7.30
2023-01-02T14:30:47.189Z,8.80
2023-01-02T14:33:34.723Z,8.60
2023-01-02T14:36:12.208Z,8.10
2023-01-02T14:38:50.977Z,6.40
2023-01-02T14:42:09.462Z,6.10
2023-01-02T14:44:51.361Z,7.60
2023-01-02T14:47:35.918Z,7.80
2023-01-02T14:50:11.753Z,6.70
2023-01-02T14:52:45.617Z,7.50
2023-01-02T14:55:27.382Z,7.20
2023-01-02T14:57:57.079Z,6.80
2023-01-02T15:00:36.914Z,6.80
2023-01-02T15:03:14.569Z,7.40
2023-01-02T15:05:51.390Z,7.10
2023-01-02T15:08:33.003Z,6.80
2023-01-02T15:11:33.268Z,7.40
2023-01-02T15:14:05.342Z,6.50
2023-01-02T15:16:49.862Z,5.90
2023-01-02T15:19:30.786Z,6.00
2023-01-02T15:22:07.882Z,5.70
2023-01-02T15:24:36.265Z,5.70
2023-01-02T15:27:28.970Z,6.90
2023-01-02T15:30:17.082Z,7.20
2023-01-02T15:32:49.422Z,6.60
2023-01-02T15:35:24.760Z,7.00
2023-01-02T15:40:32.111Z,7.10
2023-01-02T15:43:31.189Z,8.30
2023-01-02T15:45:59.753Z,7.20
2023-01-02T15:48:29.469Z,7.80
2023-01-02T15:50:59.939Z,7.80
2023-01-02T15:53:31.298Z,7.80
2023-01-02T15:55:59.622Z,7.30
2023-01-02T15:58:29.292Z,7.70
2023-01-02T16:01:13.462Z,8.10
2023-01-02T16:04:03.461Z,9.20
2023-01-02T16:06:42.907Z,8.80
2023-01-02T16:09:25.300Z,7.00
2023-01-02T16:12:01.162Z,7.50
2023-01-02T16:14:47.172Z,6.90
2023-01-02T16:17:39.990Z,9.00
2023-01-02T16:20:14.407Z,9.20
2023-01-02T16:22:45.990Z,10.20
2023-01-02T16:25:28.966Z,7.90
2023-01-02T16:28:35.128Z,8.70
2023-01-02T16:31:19.077Z,7.50
2023-01-02T16:33:48.283Z,7.40
2023-01-02T16:36:29.075Z,7.70
2023-01-02T16:39:02.593Z,6.90
2023-01-02T16:41:42.241Z,8.50
2023-01-02T16:44:17.021Z,9.00
2023-01-02T16:46:49.003Z,9.10
2023-01-02T16:49:23.355Z,8.70
2023-01-02T16:51:54.400Z,10.50
2023-01-02T16:54:22.808Z,10.90
2023-01-02T16:56:51.178Z,10.00
2023-01-02T16:59:19.551Z,10.00
2023-01-02T17:01:48.014Z,10.60
2023-01-02T17:04:16.624Z,9.80
2023-01-02T17:06:45.115Z,14.30
2023-01-02T17:09:13.475Z,18.30
2023-01-02T17:12:00.046Z,19.20
2023-01-02T17:14:34.059Z,18.60
2023-01-02T17:17:02.412Z,15.40
2023-01-02T17:19:31.306Z,14.60
2023-01-02T17:21:59.755Z,11.20
2023-01-02T17:24:28.202Z,12.10
2023-01-02T17:26:56.611Z,10.90
2023-01-02T17:29:25.000Z,11.20
2023-01-02T17:31:53.558Z,10.10
2023-01-02T17:34:21.913Z,8.70
2023-01-02T17:36:50.381Z,10.60
2023-01-02T17:39:18.779Z,12.30
2023-01-02T17:41:49.305Z,14.10
2023-01-02T17:44:20.940Z,16.10
2023-01-02T17:47:15.608Z,14.90
2023-01-02T17:49:42.014Z,12.70
2023-01-02T17:52:14.644Z,13.10
2023-01-02T17:54:43.666Z,12.30
2023-01-02T17:57:12.070Z,11.80
2023-01-02T17:59:43.492Z,12.50
2023-01-02T18:02:18.042Z,11.80
2023-01-02T18:04:54.315Z,12.70
2023-01-02T18:07:23.449Z,12.90
2023-01-02T18:10:09.223Z,13.10
2023-01-02T18:12:42.865Z,13.40
2023-01-02T18:15:15.095Z,13.00
2023-01-02T18:17:43.627Z,9.90
2023-01-02T18:20:16.138Z,8.90
2023-01-02T18:22:50.185Z,8.40
2023-01-02T18:25:27.339Z,10.40
2023-01-02T18:28:23.612Z,8.80
2023-01-02T18:33:26.297Z,9.90
2023-01-02T18:36:08.776Z,10.70
2023-01-02T18:38:44.709Z,10.50
2023-01-02T18:41:24.761Z,9.90
2023-01-02T18:44:01.925Z,9.60
2023-01-02T18:47:03.991Z,9.20
2023-01-02T18:49:37.598Z,9.40
2023-01-02T18:52:12.100Z,10.30
2023-01-02T18:54:47.482Z,10.10
2023-01-02T18:59:50.389Z,9.30
2023-01-02T19:02:37.132Z,10.80
2023-01-02T19:05:32.499Z,9.20
2023-01-02T19:08:08.796Z,9.00
2023-01-02T19:10:44.793Z,8.10
2023-01-02T19:13:53.861Z,9.50
2023-01-02T19:16:27.099Z,8.60
2023-01-02T19:18:57.190Z,8.50
2023-01-02T19:21:33.347Z,8.80
2023-01-02T19:24:04.410Z,9.80
2023-01-02T19:26:43.344Z,9.20
2023-01-02T19:29:24.121Z,9.30
2023-01-02T19:32:14.331Z,8.60
2023-01-02T19:34:52.456Z,8.20
2023-01-02T19:37:41.571Z,8.10
2023-01-02T19:40:24.121Z,9.30
2023-01-02T19:42:54.346Z,7.30
2023-01-02T19:45:26.240Z,8.40
2023-01-02T19:47:54.763Z,8.20
2023-01-02T19:50:26.677Z,8.10
2023-01-02T19:52:55.050Z,8.40
2023-01-02T19:55:23.526Z,7.70
2023-01-02T20:09:53.738Z,7.50
2023-01-02T20:12:34.287Z,7.20
2023-01-02T20:15:09.251Z,7.80
2023-01-02T20:17:39.525Z,6.80
2023-01-02T20:20:13.440Z,7.00
2023-01-02T20:22:43.646Z,7.20
2023-01-02T20:25:15.228Z,7.20
2023-01-02T20:27:43.616Z,7.50
2023-01-02T20:30:16.332Z,6.80
2023-01-02T20:32:47.135Z,7.60
2023-01-02T20:35:15.558Z,6.80
2023-01-02T20:37:43.952Z,7.00
2023-01-02T20:40:12.451Z,7.20
2023-01-02T20:42:40.871Z,6.70
2023-01-02T20:45:10.046Z,6.10
2023-01-02T20:47:38.461Z,6.50
2023-01-02T20:50:07.512Z,7.30
2023-01-02T20:52:36.023Z,7.70
2023-01-02T20:55:05.058Z,6.80
2023-01-02T20:57:33.394Z,7.00
2023-01-02T21:00:02.293Z,6.80
2023-01-02T21:02:30.868Z,6.90
2023-01-02T21:05:00.147Z,7.30
2023-01-02T21:07:28.585Z,7.00
2023-01-02T21:09:59.013Z,6.90
2023-01-02T21:12:45.977Z,7.90
2023-01-02T21:15:50.910Z,7.20
2023-01-02T21:18:26.478Z,7.80
2023-01-02T21:20:59.220Z,7.50
2023-01-02T21:23:30.115Z,8.50
2023-01-02T21:25:59.894Z,7.20
2023-01-02T21:28:28.515Z,9.10
2023-01-02T21:30:56.951Z,6.80
2023-01-02T21:33:27.618Z,7.00
2023-01-02T21:35:59.170Z,8.50
2023-01-02T21:38:29.260Z,7.90
2023-01-02T21:41:21.417Z,7.30
2023-01-02T21:43:50.073Z,8.30
2023-01-02T21:46:18.814Z,8.00
2023-01-02T21:48:47.225Z,8.60
2023-01-02T21:51:15.624Z,7.60
2023-01-02T21:53:44.026Z,6.70
2023-01-02T21:56:12.559Z,7.40
2023-01-02T21:58:40.945Z,8.30
2023-01-02T22:01:09.381Z,8.10
2023-01-02T22:03:37.982Z,8.70
2023-01-02T22:06:06.452Z,8.00
2023-01-02T22:08:34.786Z,9.30
2023-01-02T22:11:21.934Z,8.20
2023-01-02T22:13:50.227Z,8.00
2023-01-02T22:16:18.736Z,7.80
2023-01-02T22:18:49.336Z,8.60
2023-01-02T22:21:17.646Z,7.30
2023-01-02T22:23:45.950Z,7.50
2023-01-02T22:26:14.471Z,8.40
2023-01-02T22:28:43.432Z,8.00
2023-01-02T22:31:11.821Z,7.50
2023-01-02T22:33:41.298Z,8.30
2023-01-02T22:36:09.840Z,6.90
2023-01-02T22:38:55.064Z,8.20
2023-01-02T22:41:26.891Z,6.40
2023-01-02T22:43:55.581Z,7.60
2023-01-02T22:46:46.840Z,7.50
2023-01-02T22:49:27.591Z,7.20
2023-01-02T22:52:07.043Z,7.30
2023-01-02T22:54:35.903Z,6.90
2023-01-02T22:57:10.990Z,6.30
2023-01-02T22:59:41.745Z,7.30
2023-01-02T23:02:20.762Z,6.20
2023-01-02T23:04:49.228Z,7.60
2023-01-02T23:07:24.172Z,6.90
2023-01-02T23:09:53.098Z,7.30
2023-01-02T23:12:21.536Z,6.70
2023-01-02T23:14:49.865Z,7.40
2023-01-02T23:17:37.014Z,6.80
2023-01-02T23:20:06.677Z,8.60
2023-01-02T23:22:35.087Z,7.90
2023-01-02T23:25:04.717Z,8.00
2023-01-02T23:27:33.479Z,6.80
2023-01-02T23:30:02.574Z,7.70
2023-01-02T23:32:31.329Z,7.80
2023-01-02T23:34:59.646Z,7.40
2023-01-02T23:37:27.991Z,7.00
2023-01-02T23:39:56.317Z,8.20
2023-01-02T23:42:24.615Z,6.70
2023-01-02T23:44:52.891Z,7.90
2023-01-02T23:47:21.263Z,6.80
2023-01-02T23:49:49.587Z,8.00
2023-01-02T23:52:17.903Z,8.00
2023-01-02T23:54:46.249Z,7.80
2023-01-02T23:57:14.553Z,7.00
2023-01-02T23:59:43.105Z,7.80
